Time;durP1;ratioP1;P1;durP2;ratioP2;P2;SDS_P1;SDS_P2;PMS_P1;PMS_P2;Temp;Humidity;BMP_temperature;BMP_pressure;BME280_temperature;BME280_humidity;BME280_pressure;Samples;Min_cycle;Max_cycle;Signal;HPM_P1;HPM_P2
2021/08/02 00:00:10;;;;;;;6.20;0.80;;;13.10;99.90;;;;;;5056899;28;20921;-91
2021/08/02 00:02:46;;;;;;;6.10;0.40;;;13.00;99.90;;;;;;5056542;28;20477;-89
2021/08/02 00:05:13;;;;;;;2.30;0.50;;;12.90;99.90;;;;;;5056684;28;20474;-90
2021/08/02 00:07:41;;;;;;;2.17;0.37;;;12.90;99.90;;;;;;5056874;28;20449;-92
2021/08/02 00:10:13;;;;;;;3.37;0.90;;;12.80;99.90;;;;;;5056763;28;20460;-91
2021/08/02 00:12:52;;;;;;;3.00;0.30;;;12.90;99.90;;;;;;5056741;28;20421;-92
2021/08/02 00:15:20;;;;;;;7.40;0.83;;;12.90;99.90;;;;;;5056911;28;20468;-90
2021/08/02 00:17:47;;;;;;;1.87;0.60;;;12.90;99.90;;;;;;5041732;28;20454;-91
2021/08/02 00:20:16;;;;;;;5.03;0.80;;;12.90;99.90;;;;;;5037162;28;20426;-90
2021/08/02 00:22:43;;;;;;;5.47;1.50;;;13.00;99.90;;;;;;5071952;28;20469;-90
2021/08/02 00:25:10;;;;;;;1.80;0.47;;;12.90;99.90;;;;;;5056762;28;20436;-88
2021/08/02 00:27:36;;;;;;;3.00;0.80;;;12.70;99.90;;;;;;5056753;28;20425;-89
2021/08/02 00:30:03;;;;;;;3.93;0.80;;;12.80;99.90;;;;;;5056561;28;20440;-92
2021/08/02 00:32:29;;;;;;;2.00;0.70;;;12.80;99.90;;;;;;5056436;28;20416;-92
2021/08/02 00:34:54;;;;;;;3.80;1.70;;;12.80;99.90;;;;;;5059115;28;20426;-92
2021/08/02 00:37:44;;;;;;;2.30;0.60;;;12.80;99.90;;;;;;5058282;28;20685;-93
2021/08/02 00:40:39;;;;;;;3.80;0.50;;;12.90;99.90;;;;;;5056761;28;20182;-90
2021/08/02 00:43:35;;;;;;;2.80;0.73;;;13.00;99.90;;;;;;5026423;28;20437;-89
2021/08/02 00:46:01;;;;;;;2.10;0.53;;;13.10;99.90;;;;;;5039812;28;20909;-90
2021/08/02 00:48:28;;;;;;;2.50;0.67;;;13.10;99.90;;;;;;5073013;28;20427;-89
2021/08/02 00:51:01;;;;;;;6.47;1.47;;;13.20;99.90;;;;;;5058205;28;20823;-90
2021/08/02 00:53:28;;;;;;;4.87;1.00;;;13.30;99.90;;;;;;5056403;28;20979;-89
2021/08/02 00:56:03;;;;;;;4.03;0.83;;;13.40;99.90;;;;;;5055856;28;20513;-89
2021/08/02 00:58:32;;;;;;;3.23;0.63;;;13.40;99.90;;;;;;5056581;28;20410;-90
2021/08/02 01:00:58;;;;;;;6.73;1.10;;;13.50;99.90;;;;;;5055792;28;20969;-92
2021/08/02 01:03:25;;;;;;;1.80;0.73;;;13.60;99.90;;;;;;5056219;28;20429;-90
2021/08/02 01:05:54;;;;;;;1.60;0.80;;;13.60;99.90;;;;;;5056034;28;20417;-89
2021/08/02 01:08:27;;;;;;;2.93;0.73;;;13.70;99.90;;;;;;5056208;28;20422;-88
2021/08/02 01:10:56;;;;;;;1.30;0.63;;;13.60;99.90;;;;;;5055699;28;20429;-88
2021/08/02 01:13:24;;;;;;;2.33;0.63;;;13.60;99.90;;;;;;5055684;28;20418;-89
2021/08/02 01:15:52;;;;;;;2.10;0.37;;;13.70;99.90;;;;;;5054735;28;20485;-88
2021/08/02 01:18:20;;;;;;;2.03;0.90;;;13.70;99.90;;;;;;5054083;28;20429;-87
2021/08/02 01:20:47;;;;;;;3.53;0.90;;;13.70;99.90;;;;;;5073708;28;20473;-88
2021/08/02 01:23:15;;;;;;;2.73;0.60;;;13.70;99.90;;;;;;5068273;28;20418;-90
2021/08/02 01:25:41;;;;;;;2.57;0.60;;;13.80;99.90;;;;;;5075976;28;20428;-88
2021/08/02 01:28:15;;;;;;;3.77;0.60;;;13.70;99.90;;;;;;5076262;28;20437;-88
2021/08/02 01:30:44;;;;;;;3.67;0.80;;;13.60;99.90;;;;;;5075230;28;20175;-88
2021/08/02 01:33:09;;;;;;;3.10;1.10;;;13.60;99.90;;;;;;5077635;28;20502;-89
2021/08/02 01:35:38;;;;;;;3.07;0.73;;;13.60;99.90;;;;;;5080454;28;20521;-89
2021/08/02 01:38:04;;;;;;;1.53;0.60;;;13.50;99.90;;;;;;5063100;28;20180;-89
2021/08/02 01:40:30;;;;;;;5.23;1.20;;;13.60;99.90;;;;;;5077090;28;20918;-88
2021/08/02 01:42:57;;;;;;;2.40;0.70;;;13.50;99.90;;;;;;5077397;28;20190;-88
2021/08/02 01:45:24;;;;;;;1.90;0.50;;;13.70;99.90;;;;;;5059195;28;20425;-89
2021/08/02 01:48:16;;;;;;;4.80;0.70;;;13.70;99.90;;;;;;5080077;28;20454;-85
2021/08/02 01:51:00;;;;;;;5.30;0.83;;;13.70;99.90;;;;;;5058526;28;20431;-87
2021/08/02 01:53:31;;;;;;;7.90;1.03;;;13.80;99.90;;;;;;5058496;28;20467;-87
2021/08/02 01:56:09;;;;;;;3.00;0.50;;;13.80;99.90;;;;;;5061785;28;20444;-86
2021/08/02 01:58:43;;;;;;;3.43;0.53;;;13.80;99.90;;;;;;5058384;28;20436;-86
2021/08/02 02:01:11;;;;;;;6.27;0.70;;;13.80;99.90;;;;;;5042392;28;20504;-86
2021/08/02 02:03:37;;;;;;;2.50;1.03;;;13.80;99.90;;;;;;5056012;28;20492;-86
2021/08/02 02:06:09;;;;;;;3.23;0.70;;;13.90;99.90;;;;;;5056100;28;20450;-86
2021/08/02 02:08:37;;;;;;;1.70;0.40;;;13.90;99.90;;;;;;5038079;28;20433;-86
2021/08/02 02:11:04;;;;;;;3.70;0.90;;;13.90;99.90;;;;;;5055816;28;20442;-86
2021/08/02 02:13:37;;;;;;;5.40;0.30;;;13.90;99.90;;;;;;5038087;28;20419;-86
2021/08/02 02:16:03;;;;;;;4.60;1.10;;;13.90;99.90;;;;;;5038251;28;20483;-86
2021/08/02 02:18:33;;;;;;;4.43;0.50;;;13.90;99.90;;;;;;5063044;28;20433;-86
2021/08/02 02:21:02;;;;;;;4.30;1.07;;;13.90;99.90;;;;;;5076676;28;20452;-86
2021/08/02 02:23:28;;;;;;;2.23;0.40;;;13.80;99.90;;;;;;5058154;28;20433;-86
2021/08/02 02:25:55;;;;;;;6.37;0.53;;;13.70;99.90;;;;;;5074233;28;20763;-88
2021/08/02 02:28:21;;;;;;;3.37;1.30;;;13.60;99.90;;;;;;5076258;28;20452;-89
2021/08/02 02:30:49;;;;;;;3.60;0.87;;;13.40;99.90;;;;;;5057863;28;20430;-89
2021/08/02 02:33:16;;;;;;;4.13;0.77;;;13.40;99.90;;;;;;5058666;28;20835;-90
2021/08/02 02:35:45;;;;;;;2.00;0.50;;;13.30;99.90;;;;;;5059238;28;20453;-90
2021/08/02 02:38:12;;;;;;;3.37;1.10;;;13.10;99.90;;;;;;5058890;28;20468;-92
2021/08/02 02:40:40;;;;;;;2.23;0.77;;;13.10;99.90;;;;;;5058555;28;20477;-87
2021/08/02 02:43:07;;;;;;;3.60;0.90;;;13.10;99.90;;;;;;5058926;28;20433;-91
2021/08/02 02:45:35;;;;;;;2.10;0.77;;;13.00;99.90;;;;;;5057719;28;20441;-90
2021/08/02 02:48:03;;;;;;;4.03;0.70;;;13.00;99.90;;;;;;5058977;28;20429;-92
2021/08/02 02:50:29;;;;;;;2.20;0.20;;;12.90;99.90;;;;;;5058828;28;20429;-90
2021/08/02 02:52:55;;;;;;;3.43;0.70;;;12.90;99.90;;;;;;5058829;28;20429;-88
2021/08/02 02:55:25;;;;;;;4.20;0.50;;;12.80;99.90;;;;;;5062971;28;20479;-90
2021/08/02 02:57:50;;;;;;;5.30;1.03;;;12.90;99.90;;;;;;5130542;22;20487;-92
2021/08/02 03:00:16;;;;;;;3.97;1.40;;;12.80;99.90;;;;;;5082019;28;20421;-91
2021/08/02 03:02:43;;;;;;;3.17;0.80;;;12.90;99.90;;;;;;5076487;28;20213;-92
2021/08/02 03:05:11;;;;;;;3.03;0.37;;;13.00;99.90;;;;;;5076678;28;20171;-91
2021/08/02 03:07:38;;;;;;;2.87;0.43;;;13.00;99.90;;;;;;5075359;28;20434;-93
2021/08/02 03:10:05;;;;;;;1.33;0.50;;;13.10;99.90;;;;;;5076608;28;20413;-91
2021/08/02 03:12:31;;;;;;;3.73;1.07;;;13.10;99.90;;;;;;5075332;28;20437;-89
2021/08/02 03:14:57;;;;;;;2.97;0.70;;;13.20;99.90;;;;;;5076338;28;20417;-92
2021/08/02 03:17:22;;;;;;;3.87;0.90;;;13.30;99.90;;;;;;5076532;28;20173;-93
2021/08/02 03:19:48;;;;;;;5.43;1.00;;;13.30;99.90;;;;;;5075595;28;20413;-92
2021/08/02 03:22:37;;;;;;;2.93;0.47;;;13.30;99.90;;;;;;5076131;28;20235;-91
2021/08/02 03:25:24;;;;;;;3.87;0.40;;;13.30;99.90;;;;;;5076504;28;20171;-92
2021/08/02 03:28:17;;;;;;;4.40;0.97;;;13.20;99.90;;;;;;5074947;28;20430;-92
2021/08/02 03:30:45;;;;;;;1.30;0.40;;;13.30;99.90;;;;;;5073422;28;20436;-92
2021/08/02 03:33:17;;;;;;;1.40;0.50;;;13.20;99.90;;;;;;5076112;28;20414;-90
2021/08/02 03:35:44;;;;;;;6.53;0.30;;;13.20;99.90;;;;;;5074860;28;20429;-91
2021/08/02 03:38:13;;;;;;;2.27;0.50;;;13.30;99.90;;;;;;5093433;28;20477;-90
2021/08/02 03:40:42;;;;;;;3.00;0.60;;;13.40;99.90;;;;;;5095083;28;20801;-91
2021/08/02 03:43:07;;;;;;;2.27;2.00;;;13.40;99.90;;;;;;5094874;28;20440;-90
2021/08/02 03:45:34;;;;;;;2.20;0.50;;;13.40;99.90;;;;;;5095061;28;20414;-91
2021/08/02 03:48:02;;;;;;;5.23;0.83;;;13.50;99.90;;;;;;5111036;22;20211;-87
2021/08/02 03:50:27;;;;;;;2.10;0.60;;;13.50;99.90;;;;;;5078244;28;20429;-92
2021/08/02 03:52:53;;;;;;;2.33;0.70;;;13.50;99.90;;;;;;5075588;28;20414;-92
2021/08/02 03:55:21;;;;;;;2.97;0.90;;;13.50;99.90;;;;;;5056694;28;20172;-90
2021/08/02 03:57:47;;;;;;;3.93;0.70;;;13.50;99.90;;;;;;5075635;28;20168;-93
2021/08/02 04:00:13;;;;;;;2.53;0.53;;;13.50;99.90;;;;;;5070563;28;20435;-91
2021/08/02 04:02:38;;;;;;;6.73;0.87;;;13.50;99.90;;;;;;5040046;28;20763;-88
2021/08/02 04:05:04;;;;;;;2.57;0.60;;;13.60;99.90;;;;;;5035927;28;20518;-87
2021/08/02 04:07:30;;;;;;;2.10;0.27;;;13.60;99.90;;;;;;5035927;28;20659;-87
2021/08/02 04:09:55;;;;;;;3.50;0.30;;;13.60;99.90;;;;;;5035834;28;20579;-87
2021/08/02 04:12:21;;;;;;;2.77;0.63;;;13.60;99.90;;;;;;5053768;28;20176;-87
2021/08/02 04:14:46;;;;;;;5.00;0.87;;;13.70;99.90;;;;;;5053343;28;20202;-87
2021/08/02 04:17:12;;;;;;;3.10;0.63;;;13.70;99.90;;;;;;5053660;28;20176;-86
2021/08/02 04:19:37;;;;;;;2.50;0.80;;;13.70;99.90;;;;;;5035811;28;20175;-87
2021/08/02 04:22:03;;;;;;;4.50;1.27;;;13.70;99.90;;;;;;5035537;28;20205;-87
2021/08/02 04:24:29;;;;;;;4.67;0.73;;;13.70;99.90;;;;;;5040190;28;20172;-87
2021/08/02 04:26:54;;;;;;;2.27;0.83;;;13.70;99.90;;;;;;5055998;28;20177;-87
2021/08/02 04:29:20;;;;;;;1.80;0.40;;;13.80;99.90;;;;;;5054485;28;20640;-88
2021/08/02 04:31:46;;;;;;;3.17;0.87;;;13.90;99.90;;;;;;5055762;28;20230;-88
2021/08/02 04:34:12;;;;;;;1.47;0.63;;;13.80;99.90;;;;;;5055856;28;20244;-89
2021/08/02 04:36:37;;;;;;;3.87;0.60;;;13.80;99.90;;;;;;5055663;28;20205;-89
2021/08/02 04:39:03;;;;;;;5.43;0.83;;;13.90;99.90;;;;;;5056291;28;20237;-89
2021/08/02 04:41:29;;;;;;;4.07;0.73;;;13.90;99.90;;;;;;5056204;28;20215;-89
2021/08/02 04:43:54;;;;;;;2.20;1.10;;;13.80;99.90;;;;;;5073933;28;20439;-89
2021/08/02 04:46:20;;;;;;;1.30;0.40;;;13.90;99.90;;;;;;5055629;28;20636;-87
2021/08/02 04:48:46;;;;;;;3.00;0.67;;;13.90;99.90;;;;;;5055538;28;20256;-87
2021/08/02 04:51:11;;;;;;;2.50;0.70;;;13.90;99.90;;;;;;5073866;28;20222;-89
2021/08/02 04:53:37;;;;;;;3.73;1.00;;;14.00;99.90;;;;;;5072818;28;20173;-90
2021/08/02 04:56:03;;;;;;;6.73;1.07;;;14.00;99.90;;;;;;5058352;28;20223;-87
2021/08/02 04:58:29;;;;;;;6.77;0.93;;;14.00;99.90;;;;;;5055807;28;20268;-87
2021/08/02 05:00:54;;;;;;;6.23;0.87;;;14.00;99.90;;;;;;5044574;28;20871;-88
2021/08/02 05:03:20;;;;;;;1.60;0.60;;;14.00;99.90;;;;;;5035639;28;20585;-88
2021/08/02 05:05:45;;;;;;;3.40;0.70;;;14.10;99.90;;;;;;5035197;28;20219;-89
2021/08/02 05:08:11;;;;;;;4.30;0.70;;;14.10;99.90;;;;;;5035057;28;20176;-89
2021/08/02 05:10:37;;;;;;;4.50;1.10;;;14.10;99.90;;;;;;5035512;28;20173;-88
2021/08/02 05:13:02;;;;;;;6.47;1.13;;;14.10;99.90;;;;;;5035258;28;20178;-90
2021/08/02 05:15:29;;;;;;;1.73;0.37;;;14.10;99.90;;;;;;5035271;28;20180;-89
2021/08/02 05:17:54;;;;;;;3.80;0.87;;;14.10;99.90;;;;;;5039798;28;20549;-86
2021/08/02 05:20:43;;;;;;;3.50;0.60;;;14.10;99.90;;;;;;5035877;28;20439;-88
2021/08/02 05:23:48;;;;;;;2.27;0.60;;;14.20;99.90;;;;;;5035054;28;20245;-86
2021/08/02 05:26:17;;;;;;;3.13;0.57;;;14.30;99.90;;;;;;5055656;28;20420;-88
2021/08/02 05:28:43;;;;;;;5.77;0.57;;;14.30;99.90;;;;;;5034881;28;20432;-88
2021/08/02 05:31:09;;;;;;;1.63;0.30;;;14.40;99.90;;;;;;5051971;28;20184;-88
2021/08/02 05:33:34;;;;;;;1.73;0.30;;;14.40;99.90;;;;;;5055076;28;20179;-88
2021/08/02 05:36:03;;;;;;;6.13;1.03;;;14.50;99.90;;;;;;5072797;28;20250;-88
2021/08/02 05:38:30;;;;;;;4.13;1.50;;;14.60;99.90;;;;;;5051396;28;20304;-87
2021/08/02 05:40:55;;;;;;;5.13;1.10;;;14.60;99.90;;;;;;5034497;28;20480;-86
2021/08/02 05:43:21;;;;;;;2.30;0.97;;;14.60;99.90;;;;;;5052369;28;20420;-87
2021/08/02 05:45:47;;;;;;;3.90;1.17;;;14.80;99.90;;;;;;5052019;28;20227;-86
2021/08/02 05:48:12;;;;;;;3.83;0.57;;;14.80;99.90;;;;;;5052117;28;20335;-87
2021/08/02 05:50:38;;;;;;;2.93;1.30;;;14.80;99.90;;;;;;5034632;28;20261;-87
2021/08/02 05:53:04;;;;;;;7.13;1.30;;;14.80;99.90;;;;;;5065703;28;20280;-86
2021/08/02 05:55:29;;;;;;;3.10;0.60;;;14.80;99.90;;;;;;5062275;28;20208;-87
2021/08/02 05:57:55;;;;;;;4.40;1.03;;;14.90;99.90;;;;;;5034470;28;20169;-86
2021/08/02 06:00:22;;;;;;;2.20;0.70;;;14.90;99.90;;;;;;5044512;28;20182;-87
2021/08/02 06:02:48;;;;;;;3.13;0.50;;;15.00;99.90;;;;;;5054266;28;20291;-86
2021/08/02 06:05:13;;;;;;;4.97;1.17;;;15.10;99.90;;;;;;5072142;28;20427;-87
2021/08/02 06:07:42;;;;;;;3.97;1.00;;;15.30;99.90;;;;;;5054336;28;20780;-87
2021/08/02 06:10:09;;;;;;;4.20;0.57;;;15.30;99.90;;;;;;5054250;28;20177;-87
2021/08/02 06:12:34;;;;;;;1.43;0.33;;;15.40;99.90;;;;;;5072080;28;20469;-86
2021/08/02 06:15:00;;;;;;;1.57;0.60;;;15.60;99.90;;;;;;5053775;28;21152;-86
2021/08/02 06:17:26;;;;;;;4.50;1.30;;;15.50;99.90;;;;;;5053612;28;20181;-88
2021/08/02 06:19:51;;;;;;;3.07;0.60;;;15.60;99.90;;;;;;5054576;28;20177;-86
2021/08/02 06:22:17;;;;;;;5.17;0.57;;;15.60;99.90;;;;;;5057256;28;20296;-87
2021/08/02 06:24:43;;;;;;;4.77;0.50;;;15.70;99.90;;;;;;5075641;28;20555;-88
2021/08/02 06:27:08;;;;;;;2.27;0.43;;;15.70;99.90;;;;;;5075505;28;20183;-89
2021/08/02 06:29:34;;;;;;;3.43;0.50;;;15.70;99.90;;;;;;5057225;28;20510;-88
2021/08/02 06:31:59;;;;;;;4.30;0.60;;;15.80;99.90;;;;;;5057605;28;20178;-88
2021/08/02 06:34:25;;;;;;;3.67;0.53;;;15.90;99.90;;;;;;5057552;28;20170;-87
2021/08/02 06:36:51;;;;;;;1.60;0.20;;;15.90;99.90;;;;;;5075156;28;20239;-87
2021/08/02 06:39:16;;;;;;;1.90;0.53;;;15.80;99.90;;;;;;5057242;28;20176;-88
2021/08/02 06:41:42;;;;;;;2.30;0.30;;;15.70;99.90;;;;;;5075192;28;20208;-87
2021/08/02 06:44:07;;;;;;;5.40;0.77;;;15.60;99.90;;;;;;5057756;28;20182;-87
2021/08/02 06:46:33;;;;;;;2.20;0.87;;;15.50;99.90;;;;;;5061954;28;20172;-86
2021/08/02 06:48:58;;;;;;;4.17;0.97;;;15.60;99.90;;;;;;5077356;28;20217;-87
2021/08/02 06:51:24;;;;;;;4.43;0.90;;;15.70;99.90;;;;;;5057874;28;20184;-88
2021/08/02 06:53:50;;;;;;;2.73;0.53;;;15.60;99.90;;;;;;5057918;28;20173;-89
2021/08/02 06:56:15;;;;;;;4.50;0.57;;;15.60;99.90;;;;;;5058267;28;20257;-89
2021/08/02 06:58:41;;;;;;;3.53;0.50;;;15.60;99.90;;;;;;5069952;28;20185;-88
2021/08/02 07:01:07;;;;;;;4.10;0.53;;;15.70;99.90;;;;;;5056599;28;20210;-87
2021/08/02 07:03:32;;;;;;;6.13;1.73;;;15.80;99.90;;;;;;5058058;28;20191;-90
2021/08/02 07:05:58;;;;;;;3.33;0.77;;;15.90;99.90;;;;;;5058534;28;20179;-90
2021/08/02 07:08:23;;;;;;;1.90;0.30;;;16.30;99.90;;;;;;5078303;28;20239;-87
2021/08/02 07:10:49;;;;;;;4.20;0.60;;;16.50;99.90;;;;;;5057753;28;20178;-84
2021/08/02 07:13:15;;;;;;;4.03;0.70;;;16.90;99.90;;;;;;5075314;28;20586;-86
2021/08/02 07:15:41;;;;;;;3.23;0.57;;;17.40;99.90;;;;;;5055034;28;20175;-90
2021/08/02 07:18:06;;;;;;;3.40;0.53;;;17.60;99.90;;;;;;5056456;28;20211;-85
2021/08/02 07:20:32;;;;;;;4.27;0.70;;;17.70;99.90;;;;;;5055358;28;20511;-86
2021/08/02 07:22:57;;;;;;;4.10;0.53;;;17.80;99.90;;;;;;5056216;28;20216;-87
2021/08/02 07:25:23;;;;;;;6.07;1.00;;;17.50;99.90;;;;;;5074171;28;20182;-89
2021/08/02 07:27:49;;;;;;;1.90;0.60;;;17.50;99.90;;;;;;5058804;28;20183;-86
2021/08/02 07:30:14;;;;;;;2.67;0.50;;;17.40;99.90;;;;;;5064394;28;20269;-87
2021/08/02 07:32:40;;;;;;;6.47;0.90;;;19.40;99.90;;;;;;5074679;28;20180;-88
2021/08/02 07:35:06;;;;;;;3.00;0.60;;;21.90;99.90;;;;;;5073491;28;20173;-86
2021/08/02 07:37:32;;;;;;;4.83;1.03;;;23.10;99.90;;;;;;5073508;28;20177;-85
2021/08/02 07:39:57;;;;;;;2.13;0.47;;;21.40;99.90;;;;;;5073449;28;20412;-85
2021/08/02 07:42:23;;;;;;;4.60;0.50;;;20.30;99.90;;;;;;5073403;28;20216;-86
2021/08/02 07:44:49;;;;;;;4.33;0.50;;;18.90;99.90;;;;;;5072957;28;20248;-87
2021/08/02 07:47:15;;;;;;;3.10;0.93;;;18.20;99.90;;;;;;5068722;28;20535;-86
2021/08/02 07:49:40;;;;;;;6.83;0.60;;;18.00;99.90;;;;;;5053312;28;20646;-86
2021/08/02 07:52:06;;;;;;;5.57;0.67;;;17.90;99.90;;;;;;5053154;28;20172;-85
2021/08/02 07:54:32;;;;;;;2.30;0.73;;;17.70;99.90;;;;;;5035716;28;20882;-86
2021/08/02 07:56:57;;;;;;;2.37;0.60;;;17.60;99.90;;;;;;5052745;28;20656;-86
2021/08/02 07:59:23;;;;;;;2.77;0.67;;;17.40;99.90;;;;;;5035211;28;20348;-85
2021/08/02 08:01:48;;;;;;;4.97;0.83;;;17.10;99.90;;;;;;5053698;28;20210;-87
2021/08/02 08:04:14;;;;;;;1.37;0.63;;;17.20;99.90;;;;;;5050756;28;20172;-86
2021/08/02 08:06:40;;;;;;;3.17;0.50;;;17.20;99.90;;;;;;5053900;28;20183;-86
2021/08/02 08:09:05;;;;;;;2.70;0.73;;;17.20;99.90;;;;;;5053843;28;20234;-86
2021/08/02 08:11:31;;;;;;;2.07;0.33;;;17.10;99.90;;;;;;5053749;28;20234;-85
2021/08/02 08:13:56;;;;;;;3.07;0.67;;;16.90;99.90;;;;;;5053800;28;20641;-85
2021/08/02 08:16:22;;;;;;;3.53;0.50;;;16.80;99.90;;;;;;5053475;28;20280;-85
2021/08/02 08:18:47;;;;;;;3.17;0.40;;;16.70;99.90;;;;;;5053503;28;20173;-85
2021/08/02 08:21:13;;;;;;;1.80;0.40;;;16.60;99.90;;;;;;5053963;28;20209;-86
2021/08/02 08:23:39;;;;;;;2.00;0.47;;;16.70;99.90;;;;;;5035606;28;20203;-85
2021/08/02 08:26:04;;;;;;;4.33;0.53;;;16.90;99.90;;;;;;5035670;28;20183;-87
2021/08/02 08:28:30;;;;;;;2.50;0.40;;;17.20;99.90;;;;;;5035691;28;20188;-86
2021/08/02 08:30:56;;;;;;;1.60;0.40;;;17.10;99.90;;;;;;5035307;28;20177;-86
2021/08/02 08:33:26;;;;;;;3.33;0.67;;;17.10;99.90;;;;;;5053431;28;20267;-85
2021/08/02 08:35:53;;;;;;;1.53;0.70;;;17.00;99.90;;;;;;5050169;28;20205;-86
2021/08/02 08:38:19;;;;;;;1.67;0.50;;;16.80;99.90;;;;;;5045631;28;20443;-87
2021/08/02 08:40:47;;;;;;;6.70;0.53;;;16.70;99.90;;;;;;5051992;28;20407;-85
2021/08/02 08:43:16;;;;;;;2.40;0.40;;;16.50;99.90;;;;;;5034190;28;20710;-87
2021/08/02 08:45:42;;;;;;;3.00;0.97;;;16.30;99.90;;;;;;5052446;28;20418;-86
2021/08/02 08:48:08;;;;;;;2.40;0.40;;;16.40;99.90;;;;;;5044024;28;20499;-85
2021/08/02 08:50:40;;;;;;;2.60;0.70;;;16.40;99.90;;;;;;5072775;28;20171;-81
2021/08/02 08:53:07;;;;;;;2.73;0.60;;;16.50;99.90;;;;;;5064672;28;20191;-83
2021/08/02 08:55:33;;;;;;;1.20;0.20;;;16.50;99.90;;;;;;5069116;28;20487;-86
2021/08/02 08:58:03;;;;;;;2.47;0.50;;;16.70;99.90;;;;;;5054121;28;20421;-85
2021/08/02 09:00:29;;;;;;;2.03;0.50;;;16.80;99.90;;;;;;5069358;28;20421;-82
2021/08/02 09:02:55;;;;;;;2.37;0.60;;;16.80;99.90;;;;;;5072022;28;20518;-83
2021/08/02 09:05:31;;;;;;;2.07;0.47;;;17.00;99.90;;;;;;5054132;28;20426;-83
2021/08/02 09:07:56;;;;;;;2.10;0.40;;;17.40;99.90;;;;;;5070253;28;20487;-90
2021/08/02 09:10:23;;;;;;;0.83;0.30;;;18.10;99.90;;;;;;5055251;28;20932;-86
2021/08/02 09:12:49;;;;;;;7.47;0.97;;;18.40;99.90;;;;;;5053011;28;20626;-87
2021/08/02 09:15:14;;;;;;;2.10;0.20;;;18.20;99.90;;;;;;5053794;28;20435;-87
2021/08/02 09:17:40;;;;;;;3.53;0.70;;;18.10;99.90;;;;;;5056254;28;20171;-90
2021/08/02 09:20:23;;;;;;;4.80;0.43;;;18.10;99.90;;;;;;5055635;28;20175;-88
2021/08/02 09:23:16;;;;;;;1.53;0.70;;;18.20;99.90;;;;;;5048746;28;20254;-88
2021/08/02 09:26:01;;;;;;;2.70;0.40;;;18.20;99.90;;;;;;5038408;28;20546;-90
2021/08/02 09:28:27;;;;;;;3.00;0.40;;;18.70;99.90;;;;;;5042825;28;20530;-89
2021/08/02 09:31:02;;;;;;;3.33;0.43;;;19.60;99.90;;;;;;5052287;28;20430;-93
2021/08/02 09:33:47;;;;;;;1.73;0.40;;;21.60;99.90;;;;;;5066248;28;20720;-89
2021/08/02 09:36:15;;;;;;;2.50;0.50;;;22.10;99.90;;;;;;5053643;28;20479;-92
2021/08/02 09:38:41;;;;;;;3.50;0.60;;;22.90;99.90;;;;;;5082056;28;20409;-94
2021/08/02 09:41:07;;;;;;;3.30;0.30;;;23.90;99.90;;;;;;5060499;28;20989;-90
2021/08/02 09:43:33;;;;;;;3.87;0.40;;;25.00;99.90;;;;;;5054004;28;20181;-88
2021/08/02 09:46:03;;;;;;;2.47;0.40;;;25.80;99.60;;;;;;5071457;28;20574;-88
2021/08/02 09:48:40;;;;;;;2.20;0.37;;;25.80;1.00;;;;;;5071552;28;21065;-88
2021/08/02 09:51:12;;;;;;;3.03;0.30;;;25.20;1.00;;;;;;5051970;28;20423;-87
2021/08/02 09:53:39;;;;;;;2.23;0.70;;;25.50;1.00;;;;;;5055000;28;20935;-87
2021/08/02 09:56:06;;;;;;;2.83;0.40;;;26.00;1.00;;;;;;5055506;28;20415;-89
2021/08/02 09:58:35;;;;;;;3.40;0.30;;;25.90;99.90;;;;;;5076229;28;20476;-91
2021/08/02 10:01:00;;;;;;;3.80;0.57;;;26.10;99.90;;;;;;5056994;28;20430;-88
2021/08/02 10:03:26;;;;;;;2.70;1.10;;;26.40;99.90;;;;;;5051787;28;20496;-88
2021/08/02 10:05:52;;;;;;;2.27;0.40;;;25.50;1.00;;;;;;5074590;28;20219;-85
2021/08/02 10:08:19;;;;;;;1.53;0.20;;;23.50;99.90;;;;;;5070462;28;20939;-87
2021/08/02 10:10:44;;;;;;;2.80;0.60;;;22.60;99.90;;;;;;5074999;28;20436;-86
2021/08/02 10:13:10;;;;;;;1.00;0.37;;;23.10;99.90;;;;;;5057597;28;20428;-89
2021/08/02 10:15:36;;;;;;;2.83;0.33;;;23.50;1.00;;;;;;5056100;28;20165;-91
2021/08/02 10:18:05;;;;;;;2.60;0.30;;;23.20;1.00;;;;;;5057076;28;20235;-90
2021/08/02 10:20:35;;;;;;;1.53;0.20;;;23.40;1.00;;;;;;5056182;28;20440;-85
2021/08/02 10:23:04;;;;;;;2.80;0.40;;;23.30;1.00;;;;;;5073715;28;20486;-87
2021/08/02 10:25:39;;;;;;;4.57;0.60;;;23.40;47.70;;;;;;5075128;28;20741;-88
2021/08/02 10:28:14;;;;;;;1.80;0.23;;;23.70;1.00;;;;;;5075268;28;20442;-85
2021/08/02 10:30:41;;;;;;;6.30;0.20;;;24.20;1.00;;;;;;5057422;28;20438;-88
2021/08/02 10:33:08;;;;;;;5.57;0.80;;;23.90;1.00;;;;;;5078449;28;20427;-86
2021/08/02 10:35:46;;;;;;;3.23;0.50;;;23.50;1.00;;;;;;5074524;28;20423;-85
2021/08/02 10:38:14;;;;;;;1.57;0.37;;;23.30;1.00;;;;;;5068490;28;20562;-84
2021/08/02 10:40:47;;;;;;;1.10;0.23;;;22.50;1.00;;;;;;5073608;28;20416;-83
2021/08/02 10:43:12;;;;;;;5.37;0.57;;;23.20;1.00;;;;;;5073140;28;20431;-85
2021/08/02 10:45:39;;;;;;;2.50;0.40;;;24.80;99.90;;;;;;5056059;28;20426;-84
2021/08/02 10:48:06;;;;;;;2.53;0.43;;;25.20;99.90;;;;;;5055736;28;20270;-84
2021/08/02 10:50:41;;;;;;;2.87;0.37;;;24.50;99.90;;;;;;5074408;28;20403;-85
2021/08/02 10:53:17;;;;;;;1.80;0.40;;;24.60;99.90;;;;;;5072179;28;20762;-81
2021/08/02 10:55:50;;;;;;;1.50;0.20;;;22.70;1.00;;;;;;5071464;28;20419;-81
2021/08/02 10:58:34;;;;;;;1.67;0.30;;;23.30;1.00;;;;;;5074522;28;20823;-81
2021/08/02 11:01:13;;;;;;;1.33;0.40;;;23.80;1.00;;;;;;5073617;28;20434;-81
2021/08/02 11:03:41;;;;;;;1.43;0.50;;;24.40;99.90;;;;;;5072996;28;20423;-84
2021/08/02 11:06:10;;;;;;;2.77;0.50;;;23.20;99.90;;;;;;5066889;28;20431;-82
2021/08/02 11:08:55;;;;;;;2.80;0.80;;;21.70;99.90;;;;;;5070331;28;21217;-84
2021/08/02 11:11:37;;;;;;;4.90;0.70;;;20.70;99.90;;;;;;5068000;28;20566;-85
2021/08/02 11:14:20;;;;;;;2.10;0.30;;;19.80;99.90;;;;;;5055394;28;20422;-85
2021/08/02 11:16:48;;;;;;;2.47;0.30;;;19.30;99.90;;;;;;5055701;28;20433;-83
2021/08/02 11:19:23;;;;;;;3.13;0.70;;;18.50;99.90;;;;;;5055732;28;20411;-82
2021/08/02 11:21:58;;;;;;;3.53;0.37;;;17.90;99.90;;;;;;5071656;28;20458;-81
2021/08/02 11:24:24;;;;;;;2.03;0.60;;;17.40;99.90;;;;;;5071501;28;20928;-80
2021/08/02 11:26:55;;;;;;;2.10;0.63;;;17.00;99.90;;;;;;5073036;28;20426;-81
2021/08/02 11:29:23;;;;;;;4.30;0.40;;;16.80;99.90;;;;;;5055269;28;20424;-81
2021/08/02 11:32:10;;;;;;;2.70;0.73;;;16.80;99.90;;;;;;5071417;28;20409;-81
2021/08/02 11:34:38;;;;;;;4.00;1.43;;;16.70;99.90;;;;;;5072780;28;20452;-80
2021/08/02 11:37:24;;;;;;;3.27;0.40;;;16.80;99.90;;;;;;5070490;28;20417;-82
2021/08/02 11:40:04;;;;;;;2.77;0.70;;;16.90;99.90;;;;;;5051255;28;20489;-81
2021/08/02 11:42:32;;;;;;;1.43;0.40;;;16.90;99.90;;;;;;5051162;28;20482;-83
2021/08/02 11:45:01;;;;;;;3.07;0.67;;;17.00;99.90;;;;;;5073264;28;20502;-83
2021/08/02 11:47:32;;;;;;;1.30;0.37;;;16.80;99.90;;;;;;5055398;28;20504;-82
2021/08/02 11:49:58;;;;;;;5.40;0.90;;;16.80;99.90;;;;;;5073323;28;20470;-82
2021/08/02 11:52:26;;;;;;;2.20;0.47;;;16.80;99.90;;;;;;5072596;28;20525;-83
2021/08/02 11:55:18;;;;;;;6.10;1.20;;;16.80;99.90;;;;;;5071698;28;20420;-83
2021/08/02 11:57:44;;;;;;;2.80;0.47;;;16.90;99.90;;;;;;5047546;28;20946;-83
2021/08/02 12:00:17;;;;;;;3.63;0.80;;;16.90;99.90;;;;;;5073009;28;20422;-83
2021/08/02 12:02:45;;;;;;;2.33;0.20;;;16.90;99.90;;;;;;5053103;28;20201;-82
2021/08/02 12:05:28;;;;;;;5.10;0.77;;;16.90;99.90;;;;;;5073253;28;20446;-84
2021/08/02 12:07:54;;;;;;;2.97;0.50;;;16.80;99.90;;;;;;5053047;28;20496;-84
2021/08/02 12:10:22;;;;;;;1.30;0.60;;;16.90;99.90;;;;;;5073224;28;20471;-84
2021/08/02 12:13:05;;;;;;;2.23;0.50;;;17.20;99.90;;;;;;5073350;28;20492;-84
2021/08/02 12:15:33;;;;;;;2.50;0.40;;;17.40;99.90;;;;;;5071550;28;20484;-83
2021/08/02 12:17:59;;;;;;;4.13;0.70;;;17.60;99.90;;;;;;5071227;28;20459;-83
2021/08/02 12:20:38;;;;;;;2.30;0.40;;;17.80;99.90;;;;;;5073771;28;20939;-84
2021/08/02 12:23:06;;;;;;;4.30;0.60;;;18.10;99.90;;;;;;5073289;28;20581;-85
2021/08/02 12:25:36;;;;;;;2.27;0.40;;;18.30;99.90;;;;;;5073615;28;20459;-83
2021/08/02 12:28:06;;;;;;;2.13;0.60;;;18.50;99.90;;;;;;5073531;28;20422;-86
2021/08/02 12:30:32;;;;;;;5.60;0.70;;;18.90;99.90;;;;;;5072957;28;20422;-82
2021/08/02 12:32:57;;;;;;;2.13;0.63;;;19.10;99.90;;;;;;5073470;28;20423;-83
2021/08/02 12:35:25;;;;;;;2.03;0.40;;;19.20;99.90;;;;;;5073357;28;20594;-84
2021/08/02 12:37:51;;;;;;;2.47;0.23;;;19.00;99.90;;;;;;5073075;28;20526;-84
2021/08/02 12:40:18;;;;;;;1.47;0.20;;;18.70;99.90;;;;;;5073254;28;20415;-82
2021/08/02 12:42:46;;;;;;;2.67;0.40;;;18.80;99.90;;;;;;5071738;28;20473;-83
2021/08/02 12:45:14;;;;;;;0.87;0.40;;;18.90;99.90;;;;;;5072706;28;20409;-84
2021/08/02 12:47:39;;;;;;;1.60;0.23;;;18.60;99.90;;;;;;5053612;28;20474;-83
2021/08/02 12:50:07;;;;;;;1.93;0.20;;;18.50;99.90;;;;;;5074215;28;20411;-82
2021/08/02 12:52:33;;;;;;;0.77;0.40;;;18.30;99.90;;;;;;5074058;28;20241;-83
2021/08/02 12:55:00;;;;;;;1.77;0.60;;;19.00;99.90;;;;;;5073011;28;20983;-81